createdAt,value
2022-12-31T00:01:20.941Z,7.13
2022-12-31T00:03:49.508Z,7.21
2022-12-31T00:06:22.809Z,7.32
2022-12-31T00:08:52.652Z,7.41
2022-12-31T00:11:21.384Z,7.45
2022-12-31T00:13:49.934Z,7.47
2022-12-31T00:16:21.266Z,7.43
2022-12-31T00:18:50.986Z,7.46
2022-12-31T00:21:20.996Z,7.43
2022-12-31T00:23:49.687Z,7.53
2022-12-31T00:26:19.074Z,7.53
2022-12-31T00:28:47.337Z,7.57
2022-12-31T00:31:17.686Z,7.58
2022-12-31T00:33:46.801Z,7.59
2022-12-31T00:36:17.045Z,7.65
2022-12-31T00:38:47.863Z,7.79
2022-12-31T00:41:17.001Z,8.26
2022-12-31T00:43:45.715Z,8.59
2022-12-31T00:46:14.310Z,8.75
2022-12-31T00:49:07.509Z,8.91
2022-12-31T00:51:35.782Z,9.00
2022-12-31T00:54:05.559Z,9.04
2022-12-31T00:56:33.755Z,9.10
2022-12-31T00:59:02.074Z,9.33
2022-12-31T01:01:31.926Z,9.34
2022-12-31T01:04:02.711Z,9.36
2022-12-31T01:06:30.847Z,9.32
2022-12-31T01:08:59.339Z,9.35
2022-12-31T01:11:30.065Z,9.34
2022-12-31T01:14:00.038Z,9.33
2022-12-31T01:16:30.375Z,9.33
2022-12-31T01:18:59.816Z,9.28
2022-12-31T01:21:28.035Z,9.26
2022-12-31T01:23:56.090Z,9.32
2022-12-31T01:26:24.278Z,9.36
2022-12-31T01:28:53.878Z,9.47
2022-12-31T01:31:23.525Z,9.54
2022-12-31T01:33:52.342Z,9.54
2022-12-31T01:36:26.019Z,9.60
2022-12-31T01:38:56.534Z,9.68
2022-12-31T01:41:26.311Z,9.69
2022-12-31T01:43:57.500Z,9.91
2022-12-31T01:46:29.791Z,9.98
2022-12-31T01:49:00.164Z,10.15
2022-12-31T01:51:30.999Z,10.18
2022-12-31T01:53:59.966Z,10.20
2022-12-31T01:56:28.098Z,10.17
2022-12-31T01:58:58.118Z,10.17
2022-12-31T02:01:29.715Z,10.21
2022-12-31T02:03:58.212Z,10.25
2022-12-31T02:06:30.488Z,10.46
2022-12-31T02:08:59.258Z,10.71
2022-12-31T02:11:29.503Z,10.77
2022-12-31T02:14:01.886Z,10.85
2022-12-31T02:16:35.845Z,10.88
2022-12-31T02:19:13.927Z,10.91
2022-12-31T02:21:48.739Z,11.17
2022-12-31T02:24:44.928Z,11.05
2022-12-31T02:27:15.578Z,11.15
2022-12-31T02:30:07.257Z,11.25
2022-12-31T02:32:56.012Z,11.29
2022-12-31T02:35:28.382Z,11.29
2022-12-31T02:38:01.545Z,11.30
2022-12-31T02:40:29.753Z,11.38
2022-12-31T02:42:57.920Z,11.50
2022-12-31T02:45:31.186Z,11.43
2022-12-31T02:48:11.332Z,11.53
2022-12-31T02:50:55.694Z,11.52
2022-12-31T02:53:38.217Z,11.54
2022-12-31T02:56:32.599Z,11.61
2022-12-31T02:59:21.839Z,11.64
2022-12-31T03:02:12.173Z,11.66
2022-12-31T03:04:41.421Z,11.63
2022-12-31T03:07:11.002Z,11.66
2022-12-31T03:09:39.468Z,11.69
2022-12-31T03:12:26.808Z,11.68
2022-12-31T03:14:54.955Z,11.62
2022-12-31T03:17:24.765Z,11.63
2022-12-31T03:20:10.573Z,11.67
2022-12-31T03:22:41.726Z,11.66
2022-12-31T03:25:30.518Z,11.68
2022-12-31T03:27:58.843Z,11.71
2022-12-31T03:30:27.139Z,11.75
2022-12-31T03:32:57.388Z,11.72
2022-12-31T03:35:27.180Z,11.72
2022-12-31T03:37:56.480Z,11.75
2022-12-31T03:40:26.523Z,11.77
2022-12-31T03:42:55.173Z,11.71
2022-12-31T03:45:23.614Z,11.74
2022-12-31T03:47:52.188Z,11.76
2022-12-31T03:50:22.088Z,11.81
2022-12-31T03:52:50.260Z,11.91
2022-12-31T03:55:18.573Z,11.87
2022-12-31T03:57:46.792Z,11.92
2022-12-31T04:00:18.736Z,11.86
2022-12-31T04:02:47.951Z,11.91
2022-12-31T04:05:17.267Z,11.92
2022-12-31T04:07:47.057Z,11.88
2022-12-31T04:10:17.718Z,11.85
2022-12-31T04:12:46.765Z,11.78
2022-12-31T04:15:18.125Z,11.72
2022-12-31T04:17:46.327Z,11.68
2022-12-31T04:20:14.533Z,11.66
2022-12-31T04:22:44.066Z,11.69
2022-12-31T04:25:13.979Z,11.61
2022-12-31T04:27:43.797Z,11.65
2022-12-31T04:30:13.853Z,11.64
2022-12-31T04:32:42.804Z,11.68
2022-12-31T04:35:11.834Z,11.75
2022-12-31T04:37:40.030Z,11.79
2022-12-31T04:40:09.916Z,11.83
2022-12-31T04:42:39.933Z,11.79
2022-12-31T04:45:09.194Z,11.84
2022-12-31T04:47:46.637Z,11.89
2022-12-31T04:50:14.838Z,11.92
2022-12-31T04:52:43.240Z,12.00
2022-12-31T04:55:11.913Z,12.04
2022-12-31T04:57:42.117Z,12.19
2022-12-31T05:00:11.298Z,12.21
2022-12-31T05:02:39.808Z,12.24
2022-12-31T05:05:08.769Z,12.27
2022-12-31T05:07:36.875Z,12.25
2022-12-31T05:10:05.946Z,12.33
2022-12-31T05:12:34.139Z,12.31
2022-12-31T05:15:04.026Z,12.27
2022-12-31T05:17:32.351Z,12.27
2022-12-31T05:20:00.513Z,12.34
2022-12-31T05:22:32.062Z,12.40
2022-12-31T05:25:00.901Z,12.44
2022-12-31T05:27:31.249Z,12.39
2022-12-31T05:29:59.777Z,12.35
2022-12-31T05:32:29.287Z,12.33
2022-12-31T05:34:57.899Z,12.36
2022-12-31T05:37:25.996Z,12.33
2022-12-31T05:39:54.086Z,12.35
2022-12-31T05:42:22.247Z,12.36
2022-12-31T05:44:50.614Z,12.41
2022-12-31T05:47:19.003Z,12.47
2022-12-31T05:49:48.429Z,12.50
2022-12-31T05:52:16.790Z,12.58
2022-12-31T05:54:44.863Z,12.62
2022-12-31T05:57:13.363Z,12.61
2022-12-31T05:59:41.661Z,12.62
2022-12-31T06:02:09.991Z,12.73
2022-12-31T06:04:38.107Z,12.76
2022-12-31T06:07:07.644Z,12.79
2022-12-31T06:09:35.751Z,12.90
2022-12-31T06:12:03.985Z,12.88
2022-12-31T06:14:32.316Z,12.94
2022-12-31T06:17:00.892Z,13.01
2022-12-31T06:19:29.087Z,13.10
2022-12-31T06:21:57.421Z,13.17
2022-12-31T06:24:26.934Z,13.24
2022-12-31T06:26:55.030Z,13.33
2022-12-31T06:29:23.142Z,13.48
2022-12-31T06:31:51.314Z,13.46
2022-12-31T06:34:19.629Z,13.57
2022-12-31T06:36:47.707Z,13.54
2022-12-31T06:39:15.935Z,13.59
2022-12-31T06:41:45.387Z,13.57
2022-12-31T06:44:14.908Z,13.51
2022-12-31T06:46:43.045Z,13.47
2022-12-31T06:49:11.382Z,13.59
2022-12-31T06:51:39.451Z,13.47
2022-12-31T06:54:07.889Z,13.48
2022-12-31T06:56:36.922Z,13.45
2022-12-31T06:59:06.923Z,13.35
2022-12-31T07:01:47.157Z,13.35
2022-12-31T07:04:29.552Z,13.37
2022-12-31T07:07:05.063Z,13.27
2022-12-31T07:09:39.727Z,13.29
2022-12-31T07:12:15.251Z,13.24
2022-12-31T07:14:47.848Z,13.28
2022-12-31T07:17:23.924Z,13.23
2022-12-31T07:19:58.744Z,13.23
2022-12-31T07:22:27.603Z,13.22
2022-12-31T07:24:56.411Z,13.15
2022-12-31T07:27:37.392Z,13.14
2022-12-31T07:30:12.868Z,13.06
2022-12-31T07:33:04.016Z,13.03
2022-12-31T07:35:38.662Z,12.98
2022-12-31T07:38:11.797Z,12.98
2022-12-31T07:40:53.181Z,12.95
2022-12-31T07:43:30.048Z,12.92
2022-12-31T07:46:07.488Z,12.89
2022-12-31T07:48:36.032Z,12.82
2022-12-31T07:51:04.769Z,12.81
2022-12-31T07:53:33.333Z,12.82
2022-12-31T07:56:02.615Z,12.83
2022-12-31T07:58:47.212Z,12.83
2022-12-31T08:01:21.005Z,12.90
2022-12-31T08:03:54.322Z,12.82
2022-12-31T08:06:27.579Z,12.77
2022-12-31T08:09:01.512Z,12.88
2022-12-31T08:11:34.103Z,12.89
2022-12-31T08:14:02.732Z,12.93
2022-12-31T08:16:32.795Z,12.97
2022-12-31T08:19:01.295Z,12.94
2022-12-31T08:21:38.630Z,12.97
2022-12-31T08:24:15.087Z,12.94
2022-12-31T08:26:53.006Z,12.91
2022-12-31T08:29:31.718Z,12.79
2022-12-31T08:32:07.224Z,12.81
2022-12-31T08:34:40.152Z,12.81
2022-12-31T08:37:10.403Z,12.79
2022-12-31T08:39:51.167Z,12.77
2022-12-31T08:42:23.969Z,12.77
2022-12-31T08:44:59.339Z,12.78
2022-12-31T08:47:38.448Z,12.79
2022-12-31T08:50:08.473Z,12.82
2022-12-31T08:52:37.266Z,12.88
2022-12-31T08:55:06.596Z,12.90
2022-12-31T08:57:39.581Z,13.00
2022-12-31T09:00:10.763Z,13.06
2022-12-31T09:03:04.129Z,13.18
2022-12-31T09:05:34.174Z,13.29
2022-12-31T09:08:09.631Z,13.35
2022-12-31T09:10:42.294Z,13.40
2022-12-31T09:13:16.857Z,13.41
2022-12-31T09:15:48.755Z,13.37
2022-12-31T09:18:19.304Z,13.35
2022-12-31T09:20:47.989Z,13.32
2022-12-31T09:23:16.657Z,13.32
2022-12-31T09:25:58.800Z,13.33
2022-12-31T09:28:37.619Z,13.31
2022-12-31T09:31:12.377Z,13.27
2022-12-31T09:33:50.200Z,13.29
2022-12-31T09:36:20.728Z,13.31
2022-12-31T09:38:54.107Z,13.34
2022-12-31T09:41:57.999Z,13.39
2022-12-31T09:45:15.185Z,13.43
2022-12-31T09:48:09.795Z,13.43
2022-12-31T09:50:51.179Z,13.48
2022-12-31T09:53:47.755Z,13.52
2022-12-31T09:56:22.065Z,13.49
2022-12-31T09:58:59.122Z,13.46
2022-12-31T10:01:37.474Z,13.30
2022-12-31T10:04:26.011Z,13.43
2022-12-31T10:07:07.313Z,13.47
2022-12-31T10:09:51.739Z,13.51
2022-12-31T10:12:48.042Z,13.51
2022-12-31T10:15:47.959Z,13.40
2022-12-31T10:18:28.699Z,13.51
2022-12-31T10:21:07.540Z,13.58
2022-12-31T10:24:04.266Z,13.64
2022-12-31T10:26:44.066Z,13.62
2022-12-31T10:29:25.494Z,13.62
2022-12-31T10:32:07.823Z,13.68
2022-12-31T10:34:48.802Z,13.67
2022-12-31T10:37:19.152Z,13.66
2022-12-31T10:39:56.229Z,13.73
2022-12-31T10:42:59.865Z,13.78
2022-12-31T10:45:52.690Z,13.78
2022-12-31T10:49:05.179Z,13.78
2022-12-31T10:51:58.774Z,13.81
2022-12-31T10:55:14.393Z,13.81
2022-12-31T10:58:04.348Z,13.85
2022-12-31T11:00:36.528Z,13.86
2022-12-31T11:03:55.656Z,13.89
2022-12-31T11:07:14.726Z,13.95
2022-12-31T11:10:09.397Z,13.89
2022-12-31T11:13:16.173Z,13.77
2022-12-31T11:15:56.778Z,13.79
2022-12-31T11:18:30.675Z,13.92
2022-12-31T11:21:21.612Z,13.94
2022-12-31T11:23:59.632Z,13.87
2022-12-31T11:26:36.999Z,13.98
2022-12-31T11:29:14.349Z,14.00
2022-12-31T11:31:53.239Z,14.02
2022-12-31T11:34:32.814Z,14.04
2022-12-31T11:37:11.969Z,14.00
2022-12-31T11:39:48.495Z,14.01
2022-12-31T11:42:21.941Z,14.11
2022-12-31T11:44:58.927Z,14.13
2022-12-31T11:48:27.936Z,14.21
2022-12-31T11:50:43.856Z,14.25
2022-12-31T11:53:43.570Z,14.28
2022-12-31T11:56:17.337Z,14.33
2022-12-31T11:58:48.167Z,14.35
2022-12-31T12:01:21.918Z,14.38
2022-12-31T12:03:50.547Z,14.50
2022-12-31T12:06:20.898Z,14.56
2022-12-31T12:08:49.615Z,14.63
2022-12-31T12:11:21.001Z,14.62
2022-12-31T12:13:49.657Z,14.66
2022-12-31T12:16:21.470Z,14.61
2022-12-31T12:18:51.798Z,14.46
2022-12-31T12:21:22.301Z,14.49
2022-12-31T12:23:57.865Z,14.56
2022-12-31T12:26:34.409Z,14.52
2022-12-31T12:29:10.753Z,14.55
2022-12-31T12:31:40.447Z,14.61
2022-12-31T12:34:23.492Z,14.69
2022-12-31T12:36:51.786Z,14.65
2022-12-31T12:39:22.934Z,14.59
2022-12-31T12:42:02.385Z,14.42
2022-12-31T12:44:30.837Z,14.61
2022-12-31T12:47:00.800Z,14.56
2022-12-31T12:49:31.270Z,14.51
2022-12-31T12:52:19.106Z,14.69
2022-12-31T12:55:00.788Z,14.80
2022-12-31T12:57:37.845Z,14.84
2022-12-31T13:00:17.473Z,14.90
2022-12-31T13:03:03.362Z,14.96
2022-12-31T13:05:41.248Z,14.97
2022-12-31T13:08:20.647Z,15.03
2022-12-31T13:11:07.430Z,15.08
2022-12-31T13:13:41.727Z,15.11
2022-12-31T13:16:15.135Z,15.08
2022-12-31T13:18:54.303Z,15.10
2022-12-31T13:21:32.347Z,15.04
2022-12-31T13:24:08.080Z,14.95
2022-12-31T13:26:41.087Z,15.00
2022-12-31T13:29:15.083Z,15.06
2022-12-31T13:31:44.543Z,15.05
2022-12-31T13:34:15.875Z,15.10
2022-12-31T13:36:45.972Z,15.13
2022-12-31T13:39:17.345Z,15.11
2022-12-31T13:41:50.755Z,15.19
2022-12-31T13:44:28.636Z,15.19
2022-12-31T13:47:00.461Z,15.11
2022-12-31T13:49:33.300Z,15.09
2022-12-31T13:52:06.627Z,15.11
2022-12-31T13:54:39.558Z,15.19
2022-12-31T13:57:14.075Z,15.23
2022-12-31T13:59:44.546Z,15.24
2022-12-31T14:02:27.360Z,15.25
2022-12-31T14:05:01.319Z,15.15
2022-12-31T14:07:38.970Z,15.04
2022-12-31T14:10:14.571Z,15.06
2022-12-31T14:12:48.870Z,14.98
2022-12-31T14:15:25.338Z,15.02
2022-12-31T14:18:01.080Z,15.05
2022-12-31T14:20:36.101Z,14.95
2022-12-31T14:23:15.151Z,14.94
2022-12-31T14:25:48.626Z,14.88
2022-12-31T14:28:19.224Z,14.84
2022-12-31T14:30:52.015Z,14.75
2022-12-31T14:33:33.377Z,14.69
2022-12-31T14:36:18.738Z,14.69
2022-12-31T14:38:58.038Z,14.62
2022-12-31T14:41:44.692Z,14.53
2022-12-31T14:44:26.688Z,14.50
2022-12-31T14:47:03.947Z,14.47
2022-12-31T14:49:39.849Z,14.42
2022-12-31T14:52:22.456Z,14.32
2022-12-31T14:54:59.607Z,14.27
2022-12-31T14:57:54.343Z,14.23
2022-12-31T15:00:29.806Z,14.09
2022-12-31T15:02:59.661Z,14.08
2022-12-31T15:05:31.994Z,14.04
2022-12-31T15:08:31.028Z,13.97
2022-12-31T15:11:32.431Z,13.94
2022-12-31T15:14:23.340Z,13.85
2022-12-31T15:16:55.711Z,13.66
2022-12-31T15:20:01.598Z,13.36
2022-12-31T15:22:37.737Z,13.24
2022-12-31T15:25:22.585Z,13.24
2022-12-31T15:27:51.236Z,13.25
2022-12-31T15:30:35.250Z,13.23
2022-12-31T15:33:04.864Z,13.18
2022-12-31T15:35:35.012Z,13.13
2022-12-31T15:38:05.296Z,13.03
2022-12-31T15:40:43.816Z,12.95
2022-12-31T15:43:17.747Z,12.81
2022-12-31T15:45:48.244Z,12.81
2022-12-31T15:48:22.117Z,12.76
2022-12-31T15:50:50.993Z,12.75
2022-12-31T15:53:28.657Z,12.60
2022-12-31T15:55:59.933Z,12.56
2022-12-31T15:58:31.473Z,12.45
2022-12-31T16:01:11.592Z,12.30
2022-12-31T16:03:43.677Z,12.30
2022-12-31T16:06:13.390Z,12.22
2022-12-31T16:08:45.322Z,12.25
2022-12-31T16:11:14.988Z,12.10
2022-12-31T16:13:45.810Z,11.99
2022-12-31T16:16:22.214Z,11.95
2022-12-31T16:18:51.288Z,12.02
2022-12-31T16:21:40.648Z,12.02
2022-12-31T16:24:27.547Z,11.92
2022-12-31T16:26:58.543Z,11.79
2022-12-31T16:29:27.097Z,11.81
2022-12-31T16:31:55.344Z,11.75
2022-12-31T16:34:25.189Z,11.75
2022-12-31T16:36:57.512Z,11.76
2022-12-31T16:39:28.432Z,11.77
2022-12-31T16:42:19.615Z,11.71
2022-12-31T16:44:48.199Z,11.69
2022-12-31T16:47:20.213Z,11.65
2022-12-31T16:49:50.947Z,11.64
2022-12-31T16:52:27.568Z,11.57
2022-12-31T16:54:56.170Z,11.53
2022-12-31T16:57:27.860Z,11.43
2022-12-31T16:59:58.364Z,11.44
2022-12-31T17:02:29.726Z,11.36
2022-12-31T17:04:57.960Z,11.32
2022-12-31T17:07:28.207Z,11.29
2022-12-31T17:10:03.378Z,11.25
2022-12-31T17:13:00.672Z,11.26
2022-12-31T17:15:26.390Z,11.23
2022-12-31T17:17:56.353Z,10.93
2022-12-31T17:20:26.944Z,10.97
2022-12-31T17:22:57.915Z,10.96
2022-12-31T17:25:27.596Z,10.98
2022-12-31T17:28:00.199Z,10.96
2022-12-31T17:30:41.357Z,10.98
2022-12-31T17:33:30.988Z,10.97
2022-12-31T17:36:15.369Z,10.95
2022-12-31T17:38:43.689Z,10.70
2022-12-31T17:41:24.280Z,10.53
2022-12-31T17:43:55.799Z,10.59
2022-12-31T17:46:25.344Z,10.59
2022-12-31T17:48:56.155Z,10.62
2022-12-31T17:51:24.761Z,10.62
2022-12-31T17:53:52.913Z,10.33
2022-12-31T17:56:21.109Z,10.05
2022-12-31T17:58:51.598Z,10.08
2022-12-31T18:01:23.483Z,10.05
2022-12-31T18:03:52.595Z,10.07
2022-12-31T18:06:20.712Z,9.80
2022-12-31T18:08:48.872Z,9.95
2022-12-31T18:11:20.032Z,10.05
2022-12-31T18:13:48.351Z,10.00
2022-12-31T18:16:16.904Z,9.58
2022-12-31T18:18:46.752Z,9.69
2022-12-31T18:21:19.227Z,9.59
2022-12-31T18:23:48.230Z,9.73
2022-12-31T18:26:17.934Z,9.84
2022-12-31T18:28:46.531Z,9.87
2022-12-31T18:31:15.652Z,9.94
2022-12-31T18:33:43.827Z,9.98
2022-12-31T18:36:15.958Z,9.99
2022-12-31T18:38:44.002Z,9.98
2022-12-31T18:41:17.195Z,9.99
2022-12-31T18:43:45.287Z,10.03
2022-12-31T18:46:14.051Z,10.02
2022-12-31T18:48:42.601Z,10.04
2022-12-31T18:51:15.752Z,10.04
2022-12-31T18:53:43.827Z,10.01
2022-12-31T18:56:13.415Z,9.93
2022-12-31T18:58:41.695Z,9.73
2022-12-31T19:01:25.512Z,9.74
2022-12-31T19:03:54.063Z,9.42
2022-12-31T19:06:23.896Z,8.96
2022-12-31T19:08:52.993Z,8.58
2022-12-31T19:11:21.362Z,8.46
2022-12-31T19:13:49.781Z,8.40
2022-12-31T19:16:18.365Z,8.68
2022-12-31T19:18:47.483Z,8.86
2022-12-31T19:21:17.701Z,8.92
2022-12-31T19:23:47.630Z,8.73
2022-12-31T19:26:17.302Z,8.75
2022-12-31T19:28:46.500Z,8.78
2022-12-31T19:31:15.015Z,8.63
2022-12-31T19:33:43.303Z,8.75
2022-12-31T19:36:16.175Z,8.78
2022-12-31T19:38:44.786Z,8.72
2022-12-31T19:41:17.280Z,8.86
2022-12-31T19:43:45.380Z,8.92
2022-12-31T19:46:14.593Z,8.82
2022-12-31T19:48:42.857Z,8.85
2022-12-31T19:51:12.837Z,8.77
2022-12-31T19:53:40.927Z,8.93
2022-12-31T19:56:12.323Z,8.84
2022-12-31T19:58:41.759Z,8.68
2022-12-31T20:01:15.510Z,8.81
2022-12-31T20:03:43.672Z,8.92
2022-12-31T20:06:11.878Z,8.98
2022-12-31T20:08:43.343Z,8.92
2022-12-31T20:11:12.834Z,8.91
2022-12-31T20:13:42.938Z,8.96
2022-12-31T20:16:12.894Z,8.99
2022-12-31T20:18:42.241Z,9.02
2022-12-31T20:21:11.853Z,9.02
2022-12-31T20:23:40.007Z,8.96
2022-12-31T20:26:08.536Z,8.94
2022-12-31T20:28:36.906Z,8.96
2022-12-31T20:31:08.128Z,8.98
2022-12-31T20:33:36.324Z,8.91
2022-12-31T20:36:05.523Z,8.49
2022-12-31T20:38:33.884Z,8.15
2022-12-31T20:41:05.436Z,8.15
2022-12-31T20:43:34.299Z,8.31
2022-12-31T20:46:14.438Z,8.38
2022-12-31T20:48:43.710Z,8.34
2022-12-31T20:51:12.131Z,8.30
2022-12-31T20:53:40.279Z,8.38
2022-12-31T20:56:09.873Z,8.43
2022-12-31T20:58:38.544Z,8.46
2022-12-31T21:01:10.685Z,8.37
2022-12-31T21:06:29.895Z,8.19
2022-12-31T21:08:59.813Z,8.25
2022-12-31T21:11:45.539Z,8.32
2022-12-31T21:14:13.691Z,8.35
2022-12-31T21:16:43.574Z,8.39
2022-12-31T21:19:11.713Z,8.45
2022-12-31T21:21:40.004Z,8.42
2022-12-31T21:24:08.614Z,8.41
2022-12-31T21:26:37.065Z,8.30
2022-12-31T21:29:05.337Z,8.17
2022-12-31T21:31:33.532Z,8.07
2022-12-31T21:34:03.671Z,8.15
2022-12-31T21:36:32.252Z,8.20
2022-12-31T21:39:00.619Z,8.25
2022-12-31T21:41:46.634Z,8.13
2022-12-31T21:44:14.775Z,8.22
2022-12-31T21:47:15.854Z,8.24
2022-12-31T21:49:32.444Z,8.29
2022-12-31T21:52:18.104Z,7.82
2022-12-31T21:55:03.854Z,7.66
2022-12-31T21:57:46.225Z,7.36
2022-12-31T22:00:43.037Z,7.14
2022-12-31T22:03:31.805Z,6.85
2022-12-31T22:06:03.073Z,6.91
2022-12-31T22:08:32.236Z,7.05
2022-12-31T22:11:00.383Z,7.20
2022-12-31T22:13:28.689Z,7.26
2022-12-31T22:16:04.241Z,7.30
2022-12-31T22:18:35.531Z,7.01
2022-12-31T22:21:12.296Z,7.11
2022-12-31T22:23:47.078Z,7.13
2022-12-31T22:26:17.253Z,7.21
2022-12-31T22:28:46.543Z,7.20
2022-12-31T22:31:15.981Z,7.21
2022-12-31T22:33:44.506Z,7.22
2022-12-31T22:36:16.325Z,7.19
2022-12-31T22:38:44.942Z,7.14
2022-12-31T22:41:14.945Z,7.25
2022-12-31T22:43:44.677Z,7.36
2022-12-31T22:46:13.756Z,7.39
2022-12-31T22:48:42.676Z,7.45
2022-12-31T22:51:11.560Z,7.23
2022-12-31T22:53:43.493Z,7.02
2022-12-31T22:56:13.543Z,7.10
2022-12-31T22:58:42.466Z,7.11
2022-12-31T23:01:18.321Z,7.02
2022-12-31T23:03:47.247Z,6.98
2022-12-31T23:06:15.879Z,6.94
2022-12-31T23:09:07.108Z,7.02
2022-12-31T23:11:35.832Z,6.95
2022-12-31T23:14:22.729Z,7.03
2022-12-31T23:17:29.434Z,7.03
2022-12-31T23:20:14.044Z,7.05
2022-12-31T23:22:59.660Z,7.11
2022-12-31T23:25:29.228Z,6.98
2022-12-31T23:27:57.779Z,6.80
2022-12-31T23:30:26.260Z,6.85
2022-12-31T23:32:54.477Z,6.95
2022-12-31T23:35:22.845Z,7.02
2022-12-31T23:37:51.371Z,7.07
2022-12-31T23:40:21.790Z,7.09
2022-12-31T23:42:51.696Z,7.01
2022-12-31T23:45:19.866Z,6.82
2022-12-31T23:47:48.056Z,6.87
2022-12-31T23:50:16.506Z,6.92
2022-12-31T23:52:44.735Z,7.00
2022-12-31T23:55:12.860Z,7.04
2022-12-31T23:57:41.087Z,7.06
